createdAt,value
2019-04-10T00:00:11.125Z,2.70
2019-04-10T00:02:39.786Z,2.12
2019-04-10T00:05:08.193Z,1.90
2019-04-10T00:07:37.290Z,2.22
2019-04-10T00:10:06.350Z,2.10
2019-04-10T00:12:35.914Z,2.10
2019-04-10T00:15:05.157Z,2.83
2019-04-10T00:17:34.043Z,2.15
2019-04-10T00:20:02.433Z,1.98
2019-04-10T00:22:31.080Z,2.30
2019-04-10T00:25:00.101Z,2.47
2019-04-10T00:27:28.472Z,2.08
2019-04-10T00:29:57.506Z,2.30
2019-04-10T00:32:25.793Z,2.17
2019-04-10T00:34:55.978Z,2.05
2019-04-10T00:37:28.706Z,2.02
2019-04-10T00:39:55.067Z,2.12
2019-04-10T00:42:23.371Z,2.12
2019-04-10T00:44:52.220Z,2.20
2019-04-10T00:47:21.193Z,2.17
2019-04-10T00:49:50.336Z,2.33
2019-04-10T00:52:19.708Z,2.05
2019-04-10T00:54:48.779Z,2.37
2019-04-10T00:57:17.163Z,2.20
2019-04-10T00:59:45.386Z,2.17
2019-04-10T01:02:13.963Z,2.15
2019-04-10T01:04:42.566Z,2.37
2019-04-10T01:07:11.175Z,2.20
2019-04-10T01:09:39.801Z,1.90
2019-04-10T01:12:08.049Z,2.08
2019-04-10T01:14:36.241Z,2.00
2019-04-10T01:17:06.217Z,1.80
2019-04-10T01:19:34.439Z,2.20
2019-04-10T01:22:03.106Z,2.20
2019-04-10T01:24:31.372Z,1.92
2019-04-10T01:26:59.583Z,2.27
2019-04-10T01:29:27.778Z,1.70
2019-04-10T01:31:56.014Z,1.80
2019-04-10T01:34:25.329Z,1.90
2019-04-10T01:36:54.624Z,2.10
2019-04-10T01:39:24.580Z,2.00
2019-04-10T01:41:52.860Z,2.10
2019-04-10T01:44:21.083Z,2.08
2019-04-10T01:46:49.273Z,1.85
2019-04-10T01:49:17.792Z,1.90
2019-04-10T01:51:46.120Z,2.02
2019-04-10T01:54:15.175Z,2.08
2019-04-10T01:56:43.888Z,1.87
2019-04-10T01:59:12.404Z,2.10
2019-04-10T02:01:57.302Z,2.25
2019-04-10T02:04:25.524Z,2.27
2019-04-10T02:06:53.854Z,1.90
2019-04-10T02:09:22.020Z,2.17
2019-04-10T02:11:50.283Z,2.40
2019-04-10T02:14:18.442Z,2.47
2019-04-10T02:16:47.282Z,2.25
2019-04-10T02:19:16.350Z,2.20
2019-04-10T02:21:44.672Z,2.05
2019-04-10T02:24:12.902Z,2.08
2019-04-10T02:26:41.385Z,1.90
2019-04-10T02:29:11.263Z,2.37
2019-04-10T02:31:39.792Z,2.30
2019-04-10T02:34:09.400Z,2.08
2019-04-10T02:36:38.699Z,2.42
2019-04-10T02:39:19.457Z,2.37
2019-04-10T02:41:38.596Z,2.20
2019-04-10T02:44:07.889Z,2.20
2019-04-10T02:46:36.871Z,2.40
2019-04-10T02:49:06.205Z,2.72
2019-04-10T02:51:35.659Z,2.35
2019-04-10T02:54:05.034Z,1.87
2019-04-10T02:56:36.682Z,2.10
2019-04-10T02:59:05.143Z,2.27
2019-04-10T03:01:33.532Z,2.37
2019-04-10T03:04:03.304Z,2.45
2019-04-10T03:06:33.474Z,2.20
2019-04-10T03:09:16.337Z,2.20
2019-04-10T03:11:33.035Z,2.90
2019-04-10T03:14:03.389Z,2.40
2019-04-10T03:16:31.326Z,2.47
2019-04-10T03:18:59.619Z,2.25
2019-04-10T03:21:27.828Z,2.62
2019-04-10T03:23:56.059Z,2.12
2019-04-10T03:26:24.260Z,2.50
2019-04-10T03:28:53.457Z,2.90
2019-04-10T03:31:23.016Z,2.80
2019-04-10T03:33:55.340Z,2.70
2019-04-10T03:36:23.316Z,2.75
2019-04-10T03:38:59.538Z,2.45
2019-04-10T03:41:22.011Z,3.10
2019-04-10T03:43:50.192Z,3.08
2019-04-10T03:46:19.461Z,2.70
2019-04-10T03:48:49.361Z,2.65
2019-04-10T03:51:18.579Z,2.67
2019-04-10T03:53:46.943Z,2.58
2019-04-10T03:56:15.778Z,2.70
2019-04-10T03:58:44.457Z,2.90
2019-04-10T04:01:12.671Z,2.83
2019-04-10T04:03:40.935Z,2.83
2019-04-10T04:06:09.493Z,2.62
2019-04-10T04:08:37.716Z,2.60
2019-04-10T04:11:05.931Z,2.35
2019-04-10T04:13:34.141Z,2.60
2019-04-10T04:16:02.806Z,2.50
2019-04-10T04:18:31.172Z,2.67
2019-04-10T04:20:59.420Z,2.30
2019-04-10T04:23:27.785Z,2.57
2019-04-10T04:25:56.854Z,2.70
2019-04-10T04:28:25.741Z,2.85
2019-04-10T04:30:54.048Z,2.50
2019-04-10T04:33:23.220Z,2.67
2019-04-10T04:35:51.499Z,2.90
2019-04-10T04:38:19.998Z,2.30
2019-04-10T04:40:48.721Z,2.75
2019-04-10T04:43:17.017Z,2.67
2019-04-10T04:45:46.047Z,3.00
2019-04-10T04:48:14.887Z,2.80
2019-04-10T04:50:43.611Z,2.55
2019-04-10T04:53:11.759Z,2.72
2019-04-10T04:55:40.047Z,3.00
2019-04-10T04:58:09.709Z,3.20
2019-04-10T05:00:38.089Z,2.77
2019-04-10T05:03:07.681Z,2.85
2019-04-10T05:05:35.988Z,2.60
2019-04-10T05:08:05.911Z,2.90
2019-04-10T05:10:35.606Z,2.90
2019-04-10T05:13:04.095Z,2.62
2019-04-10T05:15:33.253Z,2.87
2019-04-10T05:18:02.035Z,2.90
2019-04-10T05:20:41.232Z,3.27
2019-04-10T05:23:00.342Z,2.87
2019-04-10T05:25:29.400Z,3.00
2019-04-10T05:27:57.676Z,2.90
2019-04-10T05:30:27.199Z,3.10
2019-04-10T05:32:55.716Z,2.87
2019-04-10T05:35:23.942Z,3.10
2019-04-10T05:37:52.148Z,3.40
2019-04-10T05:40:20.366Z,3.22
2019-04-10T05:42:49.119Z,2.87
2019-04-10T05:45:17.527Z,3.27
2019-04-10T05:47:46.567Z,2.87
2019-04-10T05:50:15.202Z,3.10
2019-04-10T05:52:43.483Z,3.58
2019-04-10T05:55:11.856Z,3.30
2019-04-10T05:57:40.663Z,3.40
2019-04-10T06:00:10.416Z,2.95
2019-04-10T06:02:39.827Z,3.72
2019-04-10T06:05:08.166Z,3.20
2019-04-10T06:07:37.125Z,3.52
2019-04-10T06:10:10.223Z,3.65
2019-04-10T06:12:38.276Z,3.62
2019-04-10T06:15:08.725Z,3.33
2019-04-10T06:17:38.482Z,3.65
2019-04-10T06:20:14.220Z,3.77
2019-04-10T06:22:41.550Z,3.62
2019-04-10T06:25:11.715Z,3.42
2019-04-10T06:27:40.766Z,3.50
2019-04-10T06:30:09.973Z,3.45
2019-04-10T06:32:38.279Z,3.22
2019-04-10T06:35:08.080Z,3.27
2019-04-10T06:37:37.999Z,3.42
2019-04-10T06:40:15.335Z,3.40
2019-04-10T06:42:46.232Z,3.70
2019-04-10T06:45:07.507Z,3.72
2019-04-10T06:47:36.162Z,3.37
2019-04-10T06:50:06.608Z,3.33
2019-04-10T06:52:34.854Z,3.77
2019-04-10T06:55:04.948Z,3.85
2019-04-10T06:57:45.135Z,3.33
2019-04-10T07:00:06.467Z,3.58
2019-04-10T07:02:36.080Z,3.83
2019-04-10T07:05:08.754Z,3.80
2019-04-10T07:07:49.522Z,3.65
2019-04-10T07:10:20.485Z,3.95
2019-04-10T07:12:37.544Z,3.83
2019-04-10T07:15:06.233Z,3.45
2019-04-10T07:17:38.383Z,3.70
2019-04-10T07:20:05.802Z,3.62
2019-04-10T07:22:34.009Z,2.92
2019-04-10T07:25:02.859Z,3.22
2019-04-10T07:27:35.414Z,3.55
2019-04-10T07:30:01.615Z,3.62
2019-04-10T07:32:30.000Z,3.55
2019-04-10T07:35:01.055Z,3.45
2019-04-10T07:37:28.566Z,3.27
2019-04-10T07:39:59.751Z,3.22
2019-04-10T07:42:33.946Z,3.77
2019-04-10T07:44:56.964Z,3.40
2019-04-10T07:47:25.333Z,4.10
2019-04-10T07:49:54.534Z,3.65
2019-04-10T07:52:24.014Z,3.95
2019-04-10T07:54:52.465Z,3.47
2019-04-10T07:57:20.670Z,3.67
2019-04-10T07:59:49.710Z,3.98
2019-04-10T08:02:18.006Z,3.60
2019-04-10T08:04:47.294Z,3.50
2019-04-10T08:07:28.645Z,3.52
2019-04-10T08:09:46.377Z,3.22
2019-04-10T08:12:15.570Z,3.72
2019-04-10T08:14:44.277Z,3.65
2019-04-10T08:17:12.872Z,3.50
2019-04-10T08:19:41.520Z,3.83
2019-04-10T08:22:10.325Z,3.90
2019-04-10T08:24:38.635Z,4.10
2019-04-10T08:27:07.377Z,3.60
2019-04-10T08:29:36.436Z,3.70
2019-04-10T08:32:05.597Z,4.08
2019-04-10T08:34:33.903Z,3.45
2019-04-10T08:37:02.413Z,3.10
2019-04-10T08:39:37.732Z,3.85
2019-04-10T08:42:00.627Z,3.87
2019-04-10T08:44:29.868Z,3.42
2019-04-10T08:46:58.497Z,3.35
2019-04-10T08:49:26.746Z,3.40
2019-04-10T08:51:55.563Z,3.30
2019-04-10T08:54:24.144Z,3.50
2019-04-10T08:56:52.747Z,3.50
2019-04-10T08:59:21.398Z,3.37
2019-04-10T09:01:49.608Z,3.22
2019-04-10T09:04:17.942Z,3.45
2019-04-10T09:06:47.351Z,3.70
2019-04-10T09:09:15.678Z,3.62
2019-04-10T09:11:44.899Z,3.33
2019-04-10T09:14:13.805Z,3.22
2019-04-10T09:16:42.734Z,3.40
2019-04-10T09:19:11.968Z,3.52
2019-04-10T09:21:40.267Z,3.47
2019-04-10T09:24:08.544Z,3.75
2019-04-10T09:26:38.263Z,3.37
2019-04-10T09:29:06.807Z,4.12
2019-04-10T09:31:35.100Z,3.60
2019-04-10T09:34:03.382Z,2.87
2019-04-10T09:36:31.595Z,3.10
2019-04-10T09:39:01.010Z,3.15
2019-04-10T09:41:30.026Z,3.27
2019-04-10T09:43:58.359Z,3.20
2019-04-10T09:46:26.887Z,3.35
2019-04-10T09:48:56.202Z,2.72
2019-04-10T09:51:25.536Z,3.10
2019-04-10T09:53:53.869Z,3.10
2019-04-10T09:56:22.097Z,2.90
2019-04-10T09:58:51.864Z,2.87
2019-04-10T10:01:20.267Z,2.80
2019-04-10T10:03:48.766Z,3.27
2019-04-10T10:06:25.136Z,3.25
2019-04-10T10:08:48.075Z,3.15
2019-04-10T10:11:16.694Z,3.30
2019-04-10T10:13:45.863Z,3.30
2019-04-10T10:16:14.775Z,3.15
2019-04-10T10:18:43.638Z,3.33
2019-04-10T10:21:12.480Z,2.75
2019-04-10T10:23:40.732Z,3.12
2019-04-10T10:26:09.973Z,2.78
2019-04-10T10:28:39.851Z,2.62
2019-04-10T10:31:08.214Z,2.50
2019-04-10T10:33:37.475Z,2.70
2019-04-10T10:36:05.902Z,2.95
2019-04-10T10:38:34.868Z,2.80
2019-04-10T10:41:03.141Z,3.20
2019-04-10T10:43:32.189Z,2.80
2019-04-10T10:46:00.980Z,3.33
2019-04-10T10:48:29.570Z,2.85
2019-04-10T10:50:58.331Z,2.80
2019-04-10T10:53:28.203Z,2.63
2019-04-10T10:55:56.508Z,3.20
2019-04-10T10:58:25.820Z,2.58
2019-04-10T11:00:54.157Z,3.00
2019-04-10T11:03:22.543Z,2.80
2019-04-10T11:05:50.799Z,2.60
2019-04-10T11:08:20.876Z,2.77
2019-04-10T11:13:19.236Z,2.45
2019-04-10T11:15:48.483Z,2.62
2019-04-10T11:18:18.011Z,2.50
2019-04-10T11:20:47.919Z,2.47
2019-04-10T11:23:17.906Z,2.90
2019-04-10T11:25:46.539Z,2.52
2019-04-10T11:28:16.150Z,2.50
2019-04-10T11:30:44.990Z,2.60
2019-04-10T11:33:14.607Z,2.20
2019-04-10T11:35:43.939Z,2.60
2019-04-10T11:38:13.451Z,2.45
2019-04-10T11:40:41.998Z,2.60
2019-04-10T11:43:12.331Z,2.22
2019-04-10T11:45:45.445Z,2.67
2019-04-10T11:48:10.457Z,2.65
2019-04-10T11:50:42.495Z,2.65
2019-04-10T11:53:10.473Z,2.95
2019-04-10T11:55:43.872Z,2.52
2019-04-10T11:58:11.337Z,2.80
2019-04-10T12:00:50.547Z,2.50
2019-04-10T12:03:12.698Z,2.90
2019-04-10T12:05:42.255Z,2.80
2019-04-10T12:13:10.752Z,2.80
2019-04-10T12:15:38.975Z,2.60
2019-04-10T12:18:07.200Z,2.72
2019-04-10T12:20:35.498Z,3.30
2019-04-10T12:23:04.949Z,2.70
2019-04-10T12:25:33.213Z,2.92
2019-04-10T12:28:01.434Z,2.92
2019-04-10T12:30:29.643Z,3.00
2019-04-10T12:32:57.910Z,3.02
2019-04-10T12:35:26.260Z,2.77
2019-04-10T12:38:02.281Z,2.87
2019-04-10T12:40:24.517Z,2.70
2019-04-10T12:42:52.742Z,3.42
2019-04-10T12:45:22.029Z,3.08
2019-04-10T12:47:50.862Z,2.85
2019-04-10T12:50:19.097Z,3.72
2019-04-10T12:52:47.926Z,3.00
2019-04-10T12:55:16.778Z,2.77
2019-04-10T12:57:45.447Z,2.85
2019-04-10T13:02:42.738Z,2.77
2019-04-10T13:05:11.340Z,3.05
2019-04-10T13:07:40.015Z,3.17
2019-04-10T13:10:08.738Z,2.92
2019-04-10T13:12:37.651Z,2.65
2019-04-10T13:15:07.513Z,2.52
2019-04-10T13:17:36.073Z,2.72
2019-04-10T13:20:07.582Z,2.72
2019-04-10T13:22:36.120Z,2.67
2019-04-10T13:25:06.001Z,2.85
2019-04-10T13:27:34.821Z,3.00
2019-04-10T13:30:04.911Z,2.77
2019-04-10T13:32:34.020Z,2.90
2019-04-10T13:35:02.213Z,2.85
2019-04-10T13:37:31.621Z,3.33
2019-04-10T13:39:59.913Z,2.92
2019-04-10T13:42:28.119Z,2.50
2019-04-10T13:44:57.164Z,3.12
2019-04-10T13:47:25.855Z,2.83
2019-04-10T13:49:54.552Z,3.00
2019-04-10T13:52:23.791Z,2.65
2019-04-10T13:54:52.651Z,2.90
2019-04-10T13:57:22.190Z,2.83
2019-04-10T13:59:50.803Z,2.80
2019-04-10T14:02:21.514Z,2.70
2019-04-10T14:04:49.760Z,2.70
2019-04-10T14:07:18.065Z,2.50
2019-04-10T14:09:51.135Z,2.70
2019-04-10T14:12:16.631Z,2.92
2019-04-10T14:14:44.896Z,2.87
2019-04-10T14:17:13.201Z,3.22
2019-04-10T14:19:41.554Z,2.85
2019-04-10T14:22:09.831Z,2.62
2019-04-10T14:24:42.888Z,3.05
2019-04-10T14:27:09.870Z,12.95
2019-04-10T14:29:38.636Z,2.83
2019-04-10T14:32:09.216Z,2.62
2019-04-10T14:34:38.795Z,3.02
2019-04-10T14:37:09.375Z,2.80
2019-04-10T14:39:37.669Z,2.87
2019-04-10T14:42:06.501Z,2.87
2019-04-10T14:44:34.934Z,2.58
2019-04-10T14:47:04.426Z,2.90
2019-04-10T14:49:33.419Z,2.92
2019-04-10T14:52:03.086Z,2.50
2019-04-10T14:54:32.180Z,3.08
2019-04-10T14:57:00.709Z,3.08
2019-04-10T14:59:28.917Z,2.75
2019-04-10T15:01:58.006Z,2.50
2019-04-10T15:04:26.938Z,3.07
2019-04-10T15:06:55.570Z,3.08
2019-04-10T15:09:26.154Z,2.58
2019-04-10T15:11:55.259Z,3.20
2019-04-10T15:14:23.846Z,2.90
2019-04-10T15:16:55.501Z,2.98
2019-04-10T15:19:22.743Z,3.02
2019-04-10T15:21:52.231Z,2.80
2019-04-10T15:24:21.627Z,2.90
2019-04-10T15:26:50.964Z,3.00
2019-04-10T15:29:20.399Z,3.40
2019-04-10T15:31:50.206Z,3.35
2019-04-10T15:34:18.472Z,3.10
2019-04-10T15:36:48.040Z,3.40
2019-04-10T15:39:16.895Z,3.17
2019-04-10T15:41:45.582Z,3.08
2019-04-10T15:44:14.884Z,2.77
2019-04-10T15:46:43.493Z,3.08
2019-04-10T15:49:11.843Z,2.90
2019-04-10T15:51:41.273Z,2.70
2019-04-10T15:54:10.033Z,2.58
2019-04-10T15:56:38.265Z,2.70
2019-04-10T15:59:06.487Z,2.62
2019-04-10T16:01:35.145Z,2.95
2019-04-10T16:04:03.397Z,2.50
2019-04-10T16:06:31.641Z,2.50
2019-04-10T16:09:00.910Z,2.70
2019-04-10T16:11:43.798Z,2.27
2019-04-10T16:14:22.018Z,2.37
2019-04-10T16:16:52.887Z,2.30
2019-04-10T16:19:39.064Z,2.72
2019-04-10T16:22:08.965Z,2.33
2019-04-10T16:24:37.699Z,2.17
2019-04-10T16:27:07.585Z,2.40
2019-04-10T16:29:36.471Z,2.08
2019-04-10T16:32:06.333Z,2.40
2019-04-10T16:34:34.576Z,2.08
2019-04-10T16:37:02.904Z,2.10
2019-04-10T16:39:31.453Z,1.90
2019-04-10T16:42:00.047Z,2.10
2019-04-10T16:44:28.950Z,2.20
2019-04-10T16:46:57.463Z,2.33
2019-04-10T16:49:25.820Z,2.17
2019-04-10T16:51:54.015Z,2.10
2019-04-10T16:54:22.244Z,1.70
2019-04-10T16:56:50.953Z,2.20
2019-04-10T16:59:19.298Z,1.90
2019-04-10T17:01:47.862Z,1.98
2019-04-10T17:04:16.792Z,1.87
2019-04-10T17:06:46.112Z,2.30
2019-04-10T17:09:16.581Z,2.20
2019-04-10T17:11:45.218Z,2.22
2019-04-10T17:14:13.776Z,2.80
2019-04-10T17:16:42.057Z,2.87
2019-04-10T17:19:10.359Z,2.80
2019-04-10T17:21:38.909Z,2.25
2019-04-10T17:24:07.224Z,3.10
2019-04-10T17:26:35.503Z,2.55
2019-04-10T17:29:04.943Z,2.85
2019-04-10T17:31:33.183Z,2.75
2019-04-10T17:34:02.800Z,2.90
2019-04-10T17:36:31.086Z,2.67
2019-04-10T17:39:00.809Z,2.35
2019-04-10T17:41:29.516Z,2.40
2019-04-10T17:43:58.819Z,2.62
2019-04-10T17:46:27.651Z,2.83
2019-04-10T17:48:56.025Z,2.60
2019-04-10T17:51:25.788Z,3.00
2019-04-10T17:53:54.136Z,2.98
2019-04-10T17:56:22.364Z,2.73
2019-04-10T17:58:50.577Z,3.27
2019-04-10T18:01:20.874Z,3.08
2019-04-10T18:03:53.678Z,3.87
2019-04-10T18:06:19.387Z,3.40
2019-04-10T18:08:47.668Z,3.12
2019-04-10T18:11:16.186Z,3.37
2019-04-10T18:13:44.984Z,3.27
2019-04-10T18:16:13.270Z,3.30
2019-04-10T18:18:42.148Z,3.00
2019-04-10T18:21:10.809Z,3.45
2019-04-10T18:23:39.754Z,3.20
2019-04-10T18:26:08.709Z,3.62
2019-04-10T18:28:37.999Z,3.30
2019-04-10T18:31:06.593Z,3.50
2019-04-10T18:33:36.333Z,3.65
2019-04-10T18:36:05.006Z,3.70
2019-04-10T18:38:33.558Z,4.00
2019-04-10T18:41:05.256Z,3.87
2019-04-10T18:43:32.016Z,3.27
2019-04-10T18:46:08.729Z,3.60
2019-04-10T18:48:30.429Z,4.30
2019-04-10T18:50:59.541Z,3.77
2019-04-10T18:53:28.873Z,4.43
2019-04-10T18:55:57.243Z,3.75
2019-04-10T18:58:30.221Z,3.75
2019-04-10T19:01:16.794Z,4.37
2019-04-10T19:03:59.692Z,4.28
2019-04-10T19:06:28.635Z,4.03
2019-04-10T19:09:07.752Z,4.12
2019-04-10T19:11:32.422Z,4.57
2019-04-10T19:13:57.256Z,3.92
2019-04-10T19:16:25.764Z,3.98
2019-04-10T19:18:55.300Z,4.25
2019-04-10T19:21:24.546Z,4.08
2019-04-10T19:23:55.599Z,4.10
2019-04-10T19:26:24.113Z,4.27
2019-04-10T19:28:52.935Z,4.12
2019-04-10T19:31:24.583Z,4.50
2019-04-10T19:33:53.320Z,4.60
2019-04-10T19:36:21.879Z,4.87
2019-04-10T19:38:50.129Z,4.85
2019-04-10T19:41:25.248Z,4.13
2019-04-10T19:43:48.640Z,4.03
2019-04-10T19:46:17.553Z,4.72
2019-04-10T19:48:49.769Z,4.67
2019-04-10T19:51:16.397Z,4.47
2019-04-10T19:53:45.772Z,4.95
2019-04-10T19:56:14.098Z,4.87
2019-04-10T19:58:42.326Z,4.40
2019-04-10T20:01:10.922Z,4.15
2019-04-10T20:03:39.690Z,4.90
2019-04-10T20:06:07.975Z,4.75
2019-04-10T20:08:36.165Z,4.92
2019-04-10T20:11:04.541Z,4.95
2019-04-10T20:13:32.711Z,5.10
2019-04-10T20:16:01.379Z,4.83
2019-04-10T20:18:29.625Z,4.87
2019-04-10T20:20:58.247Z,5.58
2019-04-10T20:23:27.794Z,5.27
2019-04-10T20:25:59.319Z,5.30
2019-04-10T20:28:28.679Z,5.22
2019-04-10T20:30:58.089Z,5.30
2019-04-10T20:33:27.180Z,5.70
2019-04-10T20:35:56.380Z,5.40
2019-04-10T20:38:25.204Z,5.17
2019-04-10T20:40:54.096Z,4.87
2019-04-10T20:43:22.779Z,4.60
2019-04-10T20:45:51.281Z,5.08
2019-04-10T20:48:20.348Z,4.92
2019-04-10T20:50:50.203Z,5.33
2019-04-10T20:53:19.917Z,5.00
2019-04-10T20:55:48.301Z,5.05
2019-04-10T20:58:17.643Z,5.70
2019-04-10T21:00:47.072Z,5.62
2019-04-10T21:03:15.714Z,5.22
2019-04-10T21:05:44.548Z,4.92
2019-04-10T21:08:13.738Z,4.92
2019-04-10T21:10:42.896Z,5.47
2019-04-10T21:13:11.215Z,5.53
2019-04-10T21:15:39.544Z,5.20
2019-04-10T21:18:07.984Z,5.10
2019-04-10T21:20:36.608Z,5.17
2019-04-10T21:23:05.585Z,4.72
2019-04-10T21:25:35.045Z,4.65
2019-04-10T21:28:04.734Z,5.00
2019-04-10T21:30:46.613Z,4.83
2019-04-10T21:33:25.423Z,4.53
2019-04-10T21:35:54.137Z,5.05
2019-04-10T21:38:23.492Z,5.17
2019-04-10T21:40:51.865Z,4.62
2019-04-10T21:43:21.349Z,5.00
2019-04-10T21:45:50.210Z,5.12
2019-04-10T21:48:18.904Z,4.97
2019-04-10T21:50:47.121Z,5.30
2019-04-10T21:53:16.361Z,5.47
2019-04-10T21:55:45.849Z,5.22
2019-04-10T21:58:14.499Z,5.45
2019-04-10T22:00:53.021Z,5.53
2019-04-10T22:03:21.627Z,5.65
2019-04-10T22:06:01.535Z,5.50
2019-04-10T22:08:31.766Z,5.20
2019-04-10T22:11:00.798Z,5.20
2019-04-10T22:13:30.195Z,5.58
2019-04-10T22:15:59.559Z,5.37
2019-04-10T22:18:28.006Z,5.25
2019-04-10T22:20:57.173Z,5.03
2019-04-10T22:23:26.559Z,5.37
2019-04-10T22:25:54.826Z,5.53
2019-04-10T22:28:23.293Z,5.37
2019-04-10T22:30:52.585Z,5.40
2019-04-10T22:33:22.279Z,5.50
2019-04-10T22:35:50.582Z,5.33
2019-04-10T22:38:19.413Z,5.50
2019-04-10T22:40:48.282Z,5.28
2019-04-10T22:43:16.495Z,5.25
2019-04-10T22:45:44.697Z,5.25
2019-04-10T22:48:12.950Z,5.17
2019-04-10T22:50:41.532Z,5.50
2019-04-10T22:53:10.010Z,5.85
2019-04-10T22:55:38.494Z,5.30
2019-04-10T22:58:07.285Z,5.10
2019-04-10T23:00:35.557Z,5.15
2019-04-10T23:03:03.728Z,5.03
2019-04-10T23:05:32.297Z,4.95
2019-04-10T23:08:01.119Z,5.40
2019-04-10T23:10:29.519Z,5.25
2019-04-10T23:13:01.390Z,5.30
2019-04-10T23:15:27.673Z,5.17
2019-04-10T23:17:57.265Z,4.97
2019-04-10T23:20:26.044Z,5.57
2019-04-10T23:22:54.820Z,4.85
2019-04-10T23:25:23.073Z,4.70
2019-04-10T23:27:53.623Z,4.92
2019-04-10T23:30:21.608Z,5.00
2019-04-10T23:32:49.783Z,4.78
2019-04-10T23:35:19.098Z,4.40
2019-04-10T23:37:47.403Z,5.28
2019-04-10T23:40:16.762Z,5.00
2019-04-10T23:42:46.255Z,5.08
2019-04-10T23:45:15.543Z,4.60
2019-04-10T23:47:44.440Z,4.78
2019-04-10T23:50:12.866Z,4.42
2019-04-10T23:52:42.018Z,4.83
2019-04-10T23:55:10.509Z,4.67
2019-04-10T23:57:38.730Z,5.12
